Impacts TAF Board INFO
FOR SITUATIONAL AWARENESS. NOT TO BE USED FOR FLIGHT PLANNING PURPOSES.
IDs:

KIAH - Houston/Bush Intl, TX, US

Issued at 1720 UTC 23 Jun 2018
Updated at 1915 UTC 23 Jun 2018
Potential Impact None Slight Moderate High
Time1853Z 23/20Z 23/21Z 23/22Z 23/23Z 24/00Z 24/01Z 24/02Z 24/03Z 24/04Z 24/05Z 24/06Z 24/07Z 24/08Z>>
Type OBS PRVL PRVL PRVL PRVL PRVL PRVL PRVL PRVL PRVL PRVL PRVL PRVL PRVL
VIS 10 >6 >6 >6 >6 >6 >6 >6 >6 >6 >6 >6 >6 >6
CIG 60 -- -- -- -- -- -- -- -- -- -- -- -- --
Cover BKN SCT SCT SCT SCT SCT SCT FEW FEW FEW FEW FEW FEW FEW
FltCat VFR VFR VFR VFR VFR VFR VFR VFR VFR VFR VFR VFR VFR VFR
WX -- -- -- -- -- -- -- -- -- -- -- -- -- --
WDir 170 180 180 180 180 180 180 160 160 160 160 160 160 160
WSpd 9 13 13 13 13 13 13 11 11 11 11 11 11 11
WGst 15 23 23 23 23 23 23 -- -- -- -- -- -- --

Raw TAF
KIAH 231720Z 2318/2424 18013G23KT P6SM SCT045
  FM240200 16011KT P6SM FEW030
  FM241300 17011KT P6SM BKN015 BKN025
  FM241500 18013KT P6SM SCT025 BKN035
  FM241700 16013G23KT P6SM SCT040


Raw METAR
KIAH 231853Z 17009G15KT 10SM SCT045 BKN060 34/24 A2987 RMK AO2 SLP113 T03440239
KIAH 231753Z 17007KT 10SM SCT040 BKN055 34/24 A2988 RMK AO2 SLP117 T03390244 10339 20250 58001
KIAH 231653Z 21008KT 10SM SCT035 BKN050 33/24 A2989 RMK AO2 SLP121 T03280244

METAR Board
Radar Display
Forecast Discussion

FOR SITUATIONAL AWARENESS. NOT TO BE USED FOR FLIGHT PLANNING PURPOSES.